LICJ/PMO METAR and TAF weather

Enter ICAO airport designator
Station Type Date Time Source
LICJ METAR 2022/12/05 13:20 UTC NOAA

LICJ 051320Z 05007KT CAVOK 19/09 Q1020


Station Type Date Time Source
LICJ Decoded METAR 2022/12/05 13:20 UTC NOAA

Palermo / Punta Raisi, Italy (LICJ) 38-11N 013-06E 21M
Dec 05, 2022 - 08:20 AM EST / 2022.12.05 1320 UTC
Wind: from the NE (050 degrees) at 8 MPH (7 KT):0
Visibility: greater than 7 mile(s):0
Temperature: 66 F (19 C)
Dew Point: 48 F (9 C)
Relative Humidity: 52%
Pressure (altimeter): 30.12 in. Hg (1020 hPa)
ob: LICJ 051320Z 05007KT CAVOK 19/09 Q1020
cycle: 13

Station Type Date Time Source
LICJ TAF 2022/12/05 12:21 UTC NOAA

TAF LICJ 051100Z 0512/0612 19012KT CAVOK

Example: see airport list